createdAt,value
2022-08-26T00:00:57.431Z,21.74
2022-08-26T00:03:59.755Z,21.90
2022-08-26T00:07:11.347Z,21.89
2022-08-26T00:10:50.251Z,21.78
2022-08-26T00:13:52.157Z,21.56
2022-08-26T00:17:27.486Z,21.63
2022-08-26T00:20:40.659Z,21.70
2022-08-26T00:23:46.919Z,21.63
2022-08-26T00:26:52.863Z,21.44
2022-08-26T00:29:54.711Z,21.47
2022-08-26T00:33:02.829Z,21.31
2022-08-26T00:36:05.442Z,21.24
2022-08-26T00:39:31.889Z,21.08
2022-08-26T00:42:36.936Z,21.15
2022-08-26T00:46:18.598Z,21.37
2022-08-26T00:49:31.152Z,21.13
2022-08-26T00:52:33.636Z,21.08
2022-08-26T00:55:41.947Z,21.14
2022-08-26T00:59:00.257Z,21.45
2022-08-26T01:02:06.650Z,21.70
2022-08-26T01:10:11.936Z,21.70
2022-08-26T01:13:21.157Z,21.48
2022-08-26T01:16:25.807Z,21.13
2022-08-26T01:20:00.304Z,21.27
2022-08-26T01:23:59.535Z,21.25
2022-08-26T01:27:09.733Z,21.26
2022-08-26T01:30:18.215Z,21.43
2022-08-26T01:33:25.130Z,21.30
2022-08-26T01:36:28.704Z,21.34
2022-08-26T01:39:37.063Z,21.30
2022-08-26T01:42:44.625Z,21.23
2022-08-26T01:46:21.502Z,21.36
2022-08-26T01:49:34.398Z,21.58
2022-08-26T01:52:39.827Z,21.60
2022-08-26T01:55:52.965Z,21.41
2022-08-26T01:59:03.404Z,21.35
2022-08-26T02:02:05.799Z,21.16
2022-08-26T02:05:11.133Z,21.22
2022-08-26T02:08:14.212Z,21.14
2022-08-26T02:11:43.019Z,21.07
2022-08-26T02:14:50.398Z,21.03
2022-08-26T02:17:53.301Z,21.07
2022-08-26T02:20:57.516Z,21.01
2022-08-26T02:24:15.598Z,21.07
2022-08-26T02:27:32.281Z,21.46
2022-08-26T02:30:34.743Z,21.28
2022-08-26T02:33:37.858Z,20.96
2022-08-26T02:36:45.174Z,20.62
2022-08-26T02:39:47.240Z,20.51
2022-08-26T02:42:56.048Z,20.46
2022-08-26T02:46:06.712Z,20.54
2022-08-26T02:53:01.948Z,20.33
2022-08-26T02:56:08.611Z,20.39
2022-08-26T02:59:12.653Z,19.87
2022-08-26T03:02:16.860Z,19.78
2022-08-26T03:05:28.375Z,20.03
2022-08-26T03:08:30.351Z,19.83
2022-08-26T03:11:33.341Z,19.86
2022-08-26T03:14:41.107Z,19.71
2022-08-26T03:17:57.215Z,19.68
2022-08-26T03:21:09.180Z,19.70
2022-08-26T03:24:15.689Z,19.78
2022-08-26T03:27:17.714Z,19.80
2022-08-26T03:30:38.586Z,19.67
2022-08-26T03:33:47.376Z,19.63
2022-08-26T03:36:51.872Z,19.67
2022-08-26T03:39:53.608Z,19.40
2022-08-26T03:42:59.503Z,19.56
2022-08-26T03:46:05.688Z,19.57
2022-08-26T03:49:08.142Z,19.49
2022-08-26T03:52:19.302Z,19.56
2022-08-26T03:55:25.398Z,19.52
2022-08-26T03:58:54.220Z,19.27
2022-08-26T04:01:59.032Z,19.42
2022-08-26T04:05:00.774Z,19.46
2022-08-26T04:08:11.676Z,19.43
2022-08-26T04:11:20.164Z,19.41
2022-08-26T04:14:25.957Z,19.48
2022-08-26T04:17:29.708Z,19.48
2022-08-26T04:20:39.329Z,19.36
2022-08-26T04:23:50.351Z,19.52
2022-08-26T04:26:52.581Z,19.40
2022-08-26T04:30:00.016Z,19.50
2022-08-26T04:33:13.175Z,19.52
2022-08-26T04:36:58.644Z,19.57
2022-08-26T04:40:00.533Z,19.47
2022-08-26T04:43:05.796Z,19.67
2022-08-26T04:46:13.679Z,19.66
2022-08-26T04:49:16.112Z,19.70
2022-08-26T04:52:23.031Z,19.96
2022-08-26T04:55:39.757Z,19.86
2022-08-26T04:58:52.437Z,19.22
2022-08-26T05:02:07.036Z,19.22
2022-08-26T05:05:10.698Z,19.12
2022-08-26T05:08:14.940Z,19.34
2022-08-26T05:11:17.439Z,19.38
2022-08-26T05:14:23.844Z,19.33
2022-08-26T05:17:33.466Z,19.19
2022-08-26T05:20:44.039Z,19.32
2022-08-26T05:23:48.299Z,19.43
2022-08-26T05:26:54.627Z,19.39
2022-08-26T05:29:58.435Z,19.43
2022-08-26T05:33:00.286Z,19.56
2022-08-26T05:36:11.978Z,19.44
2022-08-26T05:39:15.244Z,19.40
2022-08-26T05:42:18.212Z,19.32
2022-08-26T05:45:24.226Z,19.10
2022-08-26T05:48:25.952Z,18.94
2022-08-26T05:51:37.133Z,19.18
2022-08-26T05:54:39.974Z,19.28
2022-08-26T05:57:42.879Z,19.28
2022-08-26T06:00:45.256Z,19.35
2022-08-26T06:03:50.101Z,19.48
2022-08-26T06:06:55.070Z,19.53
2022-08-26T06:10:21.380Z,19.52
2022-08-26T06:13:21.576Z,19.72
2022-08-26T06:16:24.569Z,19.86
2022-08-26T06:19:34.520Z,19.83
2022-08-26T06:23:12.139Z,19.72
2022-08-26T06:26:16.617Z,20.07
2022-08-26T06:29:24.184Z,20.48
2022-08-26T06:32:26.682Z,21.13
2022-08-26T06:35:28.469Z,21.27
2022-08-26T06:38:30.992Z,21.49
2022-08-26T06:41:34.726Z,21.56
2022-08-26T06:44:36.523Z,21.71
2022-08-26T06:47:38.181Z,21.75
2022-08-26T06:50:40.997Z,21.98
2022-08-26T06:53:48.555Z,22.09
2022-08-26T06:56:50.385Z,22.24
2022-08-26T06:59:52.650Z,22.40
2022-08-26T07:02:54.308Z,22.69
2022-08-26T07:06:02.654Z,22.90
2022-08-26T07:09:09.703Z,23.02
2022-08-26T07:12:11.967Z,22.98
2022-08-26T07:15:13.720Z,22.80
2022-08-26T07:18:17.409Z,22.94
2022-08-26T07:21:21.131Z,22.99
2022-08-26T07:24:23.715Z,22.91
2022-08-26T07:27:30.351Z,22.83
2022-08-26T07:30:32.201Z,22.67
2022-08-26T07:33:34.456Z,22.63
2022-08-26T07:36:36.530Z,22.92
2022-08-26T07:39:40.378Z,23.24
2022-08-26T07:42:43.463Z,23.71
2022-08-26T07:45:45.856Z,24.18
2022-08-26T07:48:53.627Z,24.10
2022-08-26T07:51:56.752Z,24.53
2022-08-26T07:55:01.667Z,24.83
2022-08-26T07:58:04.470Z,25.10
2022-08-26T08:01:07.638Z,25.09
2022-08-26T08:04:12.403Z,25.14
2022-08-26T08:07:15.652Z,25.11
2022-08-26T08:10:22.156Z,25.25
2022-08-26T08:13:28.013Z,25.34
2022-08-26T08:16:32.361Z,25.01
2022-08-26T08:19:37.014Z,25.73
2022-08-26T08:22:41.289Z,25.62
2022-08-26T08:25:44.751Z,25.34
2022-08-26T08:28:47.845Z,25.65
2022-08-26T08:31:56.819Z,25.92
2022-08-26T08:35:00.219Z,26.10
2022-08-26T08:38:04.281Z,26.19
2022-08-26T08:41:06.490Z,26.06
2022-08-26T08:44:19.232Z,26.18
2022-08-26T08:47:24.167Z,26.80
2022-08-26T08:50:45.729Z,27.02
2022-08-26T08:53:54.609Z,26.99
2022-08-26T08:57:07.173Z,27.09
2022-08-26T09:00:13.999Z,27.02
2022-08-26T09:03:40.529Z,26.93
2022-08-26T09:06:44.397Z,27.11
2022-08-26T09:09:52.058Z,27.11
2022-08-26T09:12:54.507Z,26.77
2022-08-26T09:16:15.904Z,27.23
2022-08-26T09:19:40.392Z,27.45
2022-08-26T09:22:44.313Z,27.42
2022-08-26T09:25:49.622Z,27.67
2022-08-26T09:29:03.639Z,27.54
2022-08-26T09:32:21.957Z,27.69
2022-08-26T09:35:28.539Z,27.84
2022-08-26T09:38:34.468Z,28.22
2022-08-26T09:41:37.128Z,28.48
2022-08-26T09:44:54.447Z,28.80
2022-08-26T09:47:57.904Z,29.19
2022-08-26T09:51:07.225Z,29.05
2022-08-26T09:54:30.463Z,29.12
2022-08-26T09:57:44.854Z,28.95
2022-08-26T10:00:58.000Z,29.25
2022-08-26T10:04:20.946Z,29.29
2022-08-26T10:07:44.455Z,29.18
2022-08-26T10:10:46.923Z,28.89
2022-08-26T10:13:59.569Z,28.82
2022-08-26T10:17:14.561Z,28.96
2022-08-26T10:20:35.324Z,30.01
2022-08-26T10:23:42.770Z,30.03
2022-08-26T10:26:49.725Z,29.98
2022-08-26T10:29:57.246Z,30.20
2022-08-26T10:33:12.926Z,29.93
2022-08-26T10:36:52.325Z,30.45
2022-08-26T10:40:07.999Z,30.89
2022-08-26T10:43:16.998Z,30.93
2022-08-26T10:46:22.547Z,30.91
2022-08-26T10:49:29.398Z,31.61
2022-08-26T10:52:51.381Z,31.31
2022-08-26T10:56:19.223Z,31.31
2022-08-26T10:59:43.650Z,30.57
2022-08-26T11:02:52.122Z,30.51
2022-08-26T11:06:16.571Z,31.04
2022-08-26T11:09:45.857Z,31.18
2022-08-26T11:12:49.465Z,31.27
2022-08-26T11:15:54.179Z,30.77
2022-08-26T11:18:56.075Z,30.88
2022-08-26T11:22:06.787Z,30.55
2022-08-26T11:25:11.976Z,30.75
2022-08-26T11:28:34.283Z,30.94
2022-08-26T11:31:39.202Z,31.59
2022-08-26T11:34:52.972Z,31.25
2022-08-26T11:38:00.530Z,31.05
2022-08-26T11:41:09.966Z,32.01
2022-08-26T11:44:16.134Z,32.44
2022-08-26T11:47:27.302Z,32.29
2022-08-26T11:50:38.860Z,32.28
2022-08-26T11:53:47.351Z,33.05
2022-08-26T11:56:53.151Z,33.75
2022-08-26T11:59:56.610Z,32.54
2022-08-26T12:03:06.919Z,32.87
2022-08-26T12:06:43.336Z,32.73
2022-08-26T12:09:57.547Z,32.31
2022-08-26T12:13:01.701Z,32.10
2022-08-26T12:16:03.696Z,32.95
2022-08-26T12:19:27.599Z,33.54
2022-08-26T12:22:36.087Z,33.29
2022-08-26T12:25:38.919Z,33.33
2022-08-26T12:29:19.708Z,33.72
2022-08-26T12:32:24.903Z,32.97
2022-08-26T12:35:28.902Z,32.93
2022-08-26T12:38:45.025Z,33.66
2022-08-26T12:41:53.849Z,33.54
2022-08-26T12:45:06.560Z,33.51
2022-08-26T12:48:30.323Z,32.97
2022-08-26T12:51:33.115Z,33.67
2022-08-26T12:54:56.849Z,33.64
2022-08-26T12:58:23.566Z,33.81
2022-08-26T13:01:25.946Z,32.54
2022-08-26T13:04:39.816Z,32.64
2022-08-26T13:07:41.511Z,32.45
2022-08-26T13:10:47.763Z,31.52
2022-08-26T13:14:10.539Z,30.84
2022-08-26T13:17:12.207Z,30.88
2022-08-26T13:20:14.699Z,30.66
2022-08-26T13:23:17.413Z,30.28
2022-08-26T13:26:20.128Z,30.40
2022-08-26T13:29:23.871Z,30.27
2022-08-26T13:32:27.948Z,30.09
2022-08-26T13:35:29.968Z,29.89
2022-08-26T13:38:33.099Z,29.97
2022-08-26T13:41:36.756Z,29.77
2022-08-26T13:44:39.237Z,29.81
2022-08-26T13:47:40.938Z,29.65
2022-08-26T13:50:43.402Z,28.51
2022-08-26T13:53:45.712Z,27.46
2022-08-26T14:00:58.285Z,26.67
2022-08-26T14:04:00.138Z,26.37
2022-08-26T14:07:02.114Z,26.17
2022-08-26T14:10:04.484Z,25.80
2022-08-26T14:13:07.683Z,25.01
2022-08-26T14:16:13.851Z,24.55
2022-08-26T14:19:16.317Z,24.48
2022-08-26T14:22:21.364Z,24.62
2022-08-26T14:25:24.102Z,24.85
2022-08-26T14:31:29.830Z,25.47
2022-08-26T14:34:32.847Z,25.65
2022-08-26T14:37:35.158Z,25.30
2022-08-26T14:40:39.403Z,25.20
2022-08-26T14:43:49.381Z,25.22
2022-08-26T14:46:53.015Z,24.14
2022-08-26T14:49:57.758Z,22.35
2022-08-26T14:53:19.707Z,21.48
2022-08-26T14:59:50.529Z,20.77
2022-08-26T15:06:21.155Z,20.95
2022-08-26T15:09:24.670Z,20.96
2022-08-26T15:12:26.784Z,21.33
2022-08-26T15:15:29.686Z,21.72
2022-08-26T15:18:31.891Z,21.83
2022-08-26T15:21:37.034Z,21.74
2022-08-26T15:24:38.814Z,21.96
2022-08-26T15:27:43.587Z,22.26
2022-08-26T15:30:46.992Z,22.28
2022-08-26T15:33:49.465Z,22.27
2022-08-26T15:36:52.378Z,22.43
2022-08-26T15:39:59.936Z,22.66
2022-08-26T15:43:25.626Z,22.54
2022-08-26T15:46:38.714Z,22.56
2022-08-26T15:49:41.278Z,22.63
2022-08-26T15:52:42.945Z,22.75
2022-08-26T15:55:45.009Z,23.05
2022-08-26T15:58:47.013Z,23.16
2022-08-26T16:01:49.656Z,23.32
2022-08-26T16:04:51.686Z,23.02
2022-08-26T16:07:56.202Z,23.10
2022-08-26T16:11:03.517Z,23.14
2022-08-26T16:14:05.985Z,23.37
2022-08-26T16:17:10.223Z,23.53
2022-08-26T16:20:13.465Z,23.69
2022-08-26T16:23:17.856Z,24.08
2022-08-26T16:26:22.958Z,24.28
2022-08-26T16:29:25.103Z,24.39
2022-08-26T16:32:30.722Z,24.34
2022-08-26T16:35:33.449Z,24.33
2022-08-26T16:38:36.623Z,24.06
2022-08-26T16:41:38.948Z,24.06
2022-08-26T16:44:49.032Z,24.23
2022-08-26T16:47:52.015Z,24.42
2022-08-26T16:50:55.611Z,24.51
2022-08-26T16:53:58.328Z,24.58
2022-08-26T16:57:00.580Z,24.39
2022-08-26T17:00:09.659Z,24.40
2022-08-26T17:03:17.531Z,24.39
2022-08-26T17:06:23.579Z,24.33
2022-08-26T17:09:26.470Z,24.36
2022-08-26T17:12:28.851Z,24.31
2022-08-26T17:15:33.914Z,24.20
2022-08-26T17:18:36.797Z,23.75
2022-08-26T17:21:43.471Z,23.23
2022-08-26T17:25:16.278Z,21.65
2022-08-26T17:28:28.611Z,21.87
2022-08-26T17:46:09.682Z,20.68
2022-08-26T17:49:21.985Z,20.49
2022-08-26T17:52:24.281Z,20.38
2022-08-26T17:55:26.129Z,20.69
2022-08-26T17:58:28.354Z,20.64
2022-08-26T18:01:31.349Z,20.39
2022-08-26T18:08:12.804Z,20.44
2022-08-26T18:11:20.230Z,19.93
2022-08-26T18:17:54.167Z,19.19
2022-08-26T18:21:33.893Z,19.34
2022-08-26T18:24:38.283Z,19.09
2022-08-26T18:38:34.586Z,19.11
2022-08-26T18:41:49.295Z,19.26
2022-08-26T18:44:51.797Z,19.29
2022-08-26T18:47:54.320Z,19.41
2022-08-26T18:51:08.000Z,19.45
2022-08-26T18:54:15.653Z,19.32
2022-08-26T18:57:20.896Z,19.63
2022-08-26T19:00:22.735Z,19.53
2022-08-26T19:03:28.812Z,19.71
2022-08-26T19:06:33.307Z,19.81
2022-08-26T19:09:35.516Z,19.93
2022-08-26T19:12:37.915Z,19.85
2022-08-26T19:15:44.855Z,19.88
2022-08-26T19:18:48.070Z,19.86
2022-08-26T19:21:50.399Z,19.72
2022-08-26T19:24:52.350Z,19.81
2022-08-26T19:27:54.203Z,19.77
2022-08-26T19:30:56.548Z,19.84
2022-08-26T19:33:59.098Z,19.72
2022-08-26T19:37:00.939Z,19.66
2022-08-26T19:40:08.408Z,19.74
2022-08-26T19:43:20.695Z,19.66
2022-08-26T19:46:26.750Z,19.71
2022-08-26T19:49:31.486Z,19.75
2022-08-26T19:52:34.703Z,19.52
2022-08-26T19:56:07.814Z,19.56
2022-08-26T19:59:24.512Z,19.44
2022-08-26T20:02:36.327Z,19.35
2022-08-26T20:05:55.875Z,19.60
2022-08-26T20:09:20.392Z,19.57
2022-08-26T20:17:01.244Z,19.52
2022-08-26T20:21:09.465Z,19.66
2022-08-26T20:21:11.178Z,19.37
2022-08-26T20:31:27.751Z,19.10
2022-08-26T20:34:34.063Z,19.13
2022-08-26T20:37:36.849Z,19.02
2022-08-26T20:40:49.205Z,19.08
2022-08-26T20:43:52.160Z,19.00
2022-08-26T20:47:15.345Z,18.89
2022-08-26T20:50:17.079Z,18.97
2022-08-26T20:53:21.924Z,18.86
2022-08-26T20:56:26.030Z,19.07
2022-08-26T20:59:27.779Z,19.01
2022-08-26T21:02:29.839Z,19.01
2022-08-26T21:05:37.677Z,18.91
2022-08-26T21:08:43.216Z,18.84
2022-08-26T21:12:16.798Z,18.76
2022-08-26T21:15:19.632Z,18.66
2022-08-26T21:18:23.320Z,19.01
2022-08-26T21:25:29.628Z,19.09
2022-08-26T21:28:35.594Z,19.24
2022-08-26T21:35:58.705Z,19.07
2022-08-26T21:39:01.383Z,19.13
2022-08-26T21:42:06.837Z,18.87
2022-08-26T21:45:12.580Z,19.07
2022-08-26T21:48:14.944Z,19.12
2022-08-26T21:51:19.281Z,19.23
2022-08-26T21:54:21.088Z,19.22
2022-08-26T21:57:24.756Z,19.19
2022-08-26T22:00:26.567Z,19.17
2022-08-26T22:03:29.196Z,19.10
2022-08-26T22:06:53.593Z,18.85
2022-08-26T22:09:55.504Z,18.76
2022-08-26T22:13:02.518Z,18.93
2022-08-26T22:16:06.810Z,18.97
2022-08-26T22:19:10.337Z,18.78
2022-08-26T22:22:15.659Z,18.94
2022-08-26T22:25:17.402Z,18.92
2022-08-26T22:28:19.763Z,18.93
2022-08-26T22:31:22.252Z,19.06
2022-08-26T22:34:30.352Z,18.93
2022-08-26T22:37:32.107Z,19.09
2022-08-26T22:40:35.456Z,19.06
2022-08-26T22:43:38.538Z,19.20
2022-08-26T22:46:41.764Z,19.11
2022-08-26T22:58:41.916Z,19.09
2022-08-26T23:05:23.256Z,18.98
2022-08-26T23:08:26.081Z,18.98
2022-08-26T23:12:04.394Z,18.95
2022-08-26T23:15:09.172Z,18.89
2022-08-26T23:18:12.419Z,18.77
2022-08-26T23:21:17.567Z,18.73
2022-08-26T23:24:20.779Z,18.68
2022-08-26T23:27:22.555Z,18.77
2022-08-26T23:30:26.660Z,18.81
2022-08-26T23:33:48.721Z,18.79
2022-08-26T23:36:52.727Z,18.77
2022-08-26T23:39:55.587Z,18.77
2022-08-26T23:42:59.444Z,18.72
2022-08-26T23:46:01.290Z,18.66
2022-08-26T23:49:04.508Z,18.60
2022-08-26T23:52:26.383Z,18.58
2022-08-26T23:55:28.363Z,18.47
2022-08-26T23:58:30.135Z,18.50
